createdAt,value
2022-12-26T00:01:24.889Z,8.44
2022-12-26T00:03:53.225Z,8.35
2022-12-26T00:06:25.403Z,8.44
2022-12-26T00:08:54.071Z,8.50
2022-12-26T00:11:22.635Z,8.68
2022-12-26T00:13:59.413Z,8.87
2022-12-26T00:16:27.104Z,8.89
2022-12-26T00:18:55.206Z,8.88
2022-12-26T00:21:27.581Z,8.83
2022-12-26T00:23:59.399Z,8.98
2022-12-26T00:26:30.096Z,8.94
2022-12-26T00:28:58.477Z,8.97
2022-12-26T00:31:29.394Z,8.93
2022-12-26T00:33:56.758Z,8.77
2022-12-26T00:36:31.300Z,8.72
2022-12-26T00:39:01.209Z,8.62
2022-12-26T00:41:29.630Z,8.45
2022-12-26T00:43:57.357Z,8.45
2022-12-26T00:46:26.875Z,8.32
2022-12-26T00:48:54.794Z,8.28
2022-12-26T00:51:22.155Z,8.23
2022-12-26T00:53:49.568Z,8.21
2022-12-26T00:56:16.854Z,8.24
2022-12-26T00:58:44.584Z,8.14
2022-12-26T01:01:22.729Z,8.12
2022-12-26T01:03:51.105Z,8.33
2022-12-26T01:06:18.798Z,8.37
2022-12-26T01:08:46.197Z,8.37
2022-12-26T01:11:16.147Z,8.35
2022-12-26T01:13:44.497Z,8.42
2022-12-26T01:16:12.571Z,8.53
2022-12-26T01:18:39.880Z,8.62
2022-12-26T01:21:10.700Z,8.72
2022-12-26T01:23:37.864Z,8.64
2022-12-26T01:26:15.882Z,8.72
2022-12-26T01:28:51.361Z,8.65
2022-12-26T01:31:20.994Z,8.44
2022-12-26T01:33:49.167Z,8.33
2022-12-26T01:36:17.816Z,8.09
2022-12-26T01:38:45.969Z,8.10
2022-12-26T01:41:16.795Z,8.24
2022-12-26T01:43:57.577Z,8.07
2022-12-26T01:46:40.814Z,8.31
2022-12-26T01:49:17.389Z,8.31
2022-12-26T01:51:56.718Z,8.25
2022-12-26T01:54:39.366Z,7.98
2022-12-26T01:57:31.250Z,7.98
2022-12-26T02:00:00.794Z,7.99
2022-12-26T02:02:30.032Z,7.97
2022-12-26T02:05:17.293Z,8.07
2022-12-26T02:07:46.523Z,8.38
2022-12-26T02:10:22.243Z,8.44
2022-12-26T02:12:50.646Z,8.35
2022-12-26T02:15:18.789Z,8.30
2022-12-26T02:17:47.711Z,8.31
2022-12-26T02:20:27.822Z,8.27
2022-12-26T02:23:25.746Z,8.07
2022-12-26T02:26:20.792Z,7.90
2022-12-26T02:29:22.725Z,7.86
2022-12-26T02:32:17.389Z,7.92
2022-12-26T02:35:27.128Z,7.62
2022-12-26T02:38:00.162Z,7.60
2022-12-26T02:40:49.977Z,7.58
2022-12-26T02:43:32.031Z,7.71
2022-12-26T02:46:30.847Z,7.74
2022-12-26T02:49:23.765Z,7.44
2022-12-26T02:52:41.750Z,7.48
2022-12-26T02:55:39.148Z,7.24
2022-12-26T02:58:53.624Z,7.14
2022-12-26T03:01:57.575Z,7.08
2022-12-26T03:04:46.622Z,6.96
2022-12-26T03:07:40.533Z,6.94
2022-12-26T03:10:44.479Z,7.12
2022-12-26T03:13:20.034Z,7.07
2022-12-26T03:16:25.889Z,7.20
2022-12-26T03:19:03.369Z,7.58
2022-12-26T03:21:40.235Z,7.50
2022-12-26T03:24:12.391Z,7.42
2022-12-26T03:26:52.386Z,7.84
2022-12-26T03:29:42.653Z,7.77
2022-12-26T03:32:12.845Z,7.78
2022-12-26T03:34:45.042Z,7.99
2022-12-26T03:37:47.904Z,7.80
2022-12-26T03:41:10.873Z,7.53
2022-12-26T03:44:35.324Z,7.40
2022-12-26T03:47:44.289Z,7.23
2022-12-26T03:50:56.167Z,7.14
2022-12-26T03:53:49.163Z,7.10
2022-12-26T03:56:52.377Z,7.12
2022-12-26T03:59:50.480Z,7.17
2022-12-26T04:02:39.962Z,7.21
2022-12-26T04:05:27.880Z,7.10
2022-12-26T04:08:20.235Z,7.05
2022-12-26T04:11:14.803Z,7.02
2022-12-26T04:14:30.688Z,6.99
2022-12-26T04:18:11.824Z,7.05
2022-12-26T04:20:55.348Z,7.02
2022-12-26T04:23:53.933Z,7.17
2022-12-26T04:26:51.424Z,7.05
2022-12-26T04:29:37.471Z,6.91
2022-12-26T04:32:53.163Z,6.99
2022-12-26T04:36:00.992Z,6.94
2022-12-26T04:38:54.290Z,6.85
2022-12-26T04:41:42.383Z,6.89
2022-12-26T04:44:10.477Z,6.73
2022-12-26T04:46:45.452Z,6.60
2022-12-26T04:49:34.851Z,6.51
2022-12-26T04:52:06.422Z,6.56
2022-12-26T04:54:34.047Z,6.58
2022-12-26T04:57:01.330Z,6.56
2022-12-26T04:59:28.919Z,6.49
2022-12-26T05:02:14.906Z,6.37
2022-12-26T05:05:01.188Z,6.40
2022-12-26T05:07:52.445Z,6.41
2022-12-26T05:10:27.160Z,6.35
2022-12-26T05:12:55.414Z,6.45
2022-12-26T05:15:23.059Z,6.36
2022-12-26T05:18:08.947Z,6.45
2022-12-26T05:20:54.789Z,6.42
2022-12-26T05:23:45.494Z,6.70
2022-12-26T05:26:40.338Z,6.77
2022-12-26T05:29:08.159Z,7.02
2022-12-26T05:31:36.780Z,7.08
2022-12-26T05:34:05.826Z,6.96
2022-12-26T05:36:52.164Z,7.18
2022-12-26T05:39:19.951Z,7.01
2022-12-26T05:41:47.484Z,7.08
2022-12-26T05:44:15.142Z,7.24
2022-12-26T05:46:43.096Z,7.32
2022-12-26T05:49:11.119Z,7.32
2022-12-26T05:51:38.849Z,7.60
2022-12-26T05:54:06.186Z,7.72
2022-12-26T05:56:34.087Z,7.76
2022-12-26T05:59:02.214Z,7.68
2022-12-26T06:01:30.805Z,7.78
2022-12-26T06:04:00.152Z,7.86
2022-12-26T06:06:28.473Z,7.88
2022-12-26T06:08:57.079Z,7.76
2022-12-26T06:11:26.741Z,7.74
2022-12-26T06:13:55.226Z,7.92
2022-12-26T06:16:23.118Z,7.80
2022-12-26T06:18:50.549Z,7.68
2022-12-26T06:21:20.003Z,7.73
2022-12-26T06:23:48.011Z,7.76
2022-12-26T06:26:15.620Z,7.72
2022-12-26T06:28:43.694Z,7.65
2022-12-26T06:31:21.269Z,7.68
2022-12-26T06:33:58.383Z,7.70
2022-12-26T06:36:27.905Z,7.66
2022-12-26T06:38:55.590Z,7.86
2022-12-26T06:41:24.726Z,7.94
2022-12-26T06:43:52.224Z,7.94
2022-12-26T06:46:24.115Z,7.90
2022-12-26T06:48:52.925Z,7.93
2022-12-26T06:51:29.114Z,8.12
2022-12-26T06:53:56.459Z,8.34
2022-12-26T06:56:27.492Z,8.51
2022-12-26T06:59:06.387Z,8.41
2022-12-26T07:01:35.514Z,8.37
2022-12-26T07:04:04.641Z,8.50
2022-12-26T07:06:37.699Z,8.73
2022-12-26T07:09:15.195Z,9.07
2022-12-26T07:11:46.619Z,9.24
2022-12-26T07:14:14.614Z,9.11
2022-12-26T07:16:44.556Z,8.94
2022-12-26T07:19:14.285Z,8.94
2022-12-26T07:21:42.882Z,8.87
2022-12-26T07:24:21.024Z,8.97
2022-12-26T07:26:49.823Z,9.18
2022-12-26T07:29:17.622Z,9.26
2022-12-26T07:31:45.069Z,9.08
2022-12-26T07:34:12.481Z,8.92
2022-12-26T07:36:40.799Z,9.05
2022-12-26T07:39:08.223Z,9.25
2022-12-26T07:41:54.219Z,9.51
2022-12-26T07:44:21.474Z,9.48
2022-12-26T07:46:48.805Z,9.78
2022-12-26T07:49:16.139Z,10.00
2022-12-26T07:51:43.498Z,10.05
2022-12-26T07:54:12.017Z,10.00
2022-12-26T07:56:41.180Z,9.60
2022-12-26T07:59:16.663Z,9.56
2022-12-26T08:01:44.444Z,9.53
2022-12-26T08:04:13.586Z,9.46
2022-12-26T08:06:40.962Z,9.40
2022-12-26T08:09:12.393Z,9.32
2022-12-26T08:11:39.677Z,9.42
2022-12-26T08:16:58.263Z,9.21
2022-12-26T08:19:25.634Z,9.26
2022-12-26T08:21:53.040Z,9.29
2022-12-26T08:24:20.603Z,9.14
2022-12-26T08:26:48.038Z,8.98
2022-12-26T08:29:15.472Z,8.91
2022-12-26T08:31:43.361Z,9.11
2022-12-26T08:34:10.847Z,9.00
2022-12-26T08:36:39.423Z,8.99
2022-12-26T08:39:06.796Z,9.04
2022-12-26T08:41:34.362Z,9.13
2022-12-26T08:44:26.733Z,9.27
2022-12-26T08:46:50.549Z,9.19
2022-12-26T08:49:17.979Z,9.14
2022-12-26T08:51:45.325Z,9.03
2022-12-26T08:54:12.666Z,9.14
2022-12-26T08:56:40.151Z,9.21
2022-12-26T08:59:07.531Z,9.16
2022-12-26T09:01:35.045Z,9.11
2022-12-26T09:04:04.235Z,9.08
2022-12-26T09:06:37.677Z,9.16
2022-12-26T09:09:07.764Z,9.37
2022-12-26T09:11:35.521Z,9.34
2022-12-26T09:14:04.577Z,9.41
2022-12-26T09:16:49.384Z,9.24
2022-12-26T09:19:18.511Z,9.35
2022-12-26T09:21:47.032Z,9.31
2022-12-26T09:24:18.231Z,9.33
2022-12-26T09:26:45.710Z,9.75
2022-12-26T09:29:13.804Z,10.51
2022-12-26T09:31:41.471Z,10.85
2022-12-26T09:34:08.990Z,11.03
2022-12-26T09:36:38.654Z,11.17
2022-12-26T09:39:06.831Z,11.32
2022-12-26T09:41:45.899Z,11.47
2022-12-26T09:44:27.781Z,11.43
2022-12-26T09:47:36.504Z,11.41
2022-12-26T09:50:38.300Z,11.47
2022-12-26T09:53:19.303Z,11.62
2022-12-26T09:56:01.370Z,11.73
2022-12-26T09:58:57.801Z,11.73
2022-12-26T10:01:33.352Z,11.70
2022-12-26T10:04:02.654Z,11.81
2022-12-26T10:06:57.867Z,11.75
2022-12-26T10:09:55.484Z,11.82
2022-12-26T10:13:24.874Z,11.86
2022-12-26T10:16:05.654Z,11.88
2022-12-26T10:18:32.996Z,11.97
2022-12-26T10:21:25.284Z,11.96
2022-12-26T10:24:00.799Z,12.02
2022-12-26T10:26:42.455Z,12.01
2022-12-26T10:29:09.521Z,11.99
2022-12-26T10:31:42.378Z,11.84
2022-12-26T10:34:29.855Z,11.97
2022-12-26T10:37:00.128Z,11.87
2022-12-26T10:39:56.405Z,11.94
2022-12-26T10:42:42.681Z,11.93
2022-12-26T10:45:12.948Z,11.76
2022-12-26T10:47:45.536Z,11.92
2022-12-26T10:50:31.045Z,11.97
2022-12-26T10:53:00.947Z,11.91
2022-12-26T10:55:35.330Z,11.95
2022-12-26T10:58:30.333Z,11.97
2022-12-26T11:00:59.499Z,12.02
2022-12-26T11:03:26.956Z,12.03
2022-12-26T11:06:12.104Z,12.01
2022-12-26T11:08:51.976Z,12.08
2022-12-26T11:11:47.333Z,12.07
2022-12-26T11:14:34.581Z,12.27
2022-12-26T11:17:13.059Z,12.30
2022-12-26T11:19:45.382Z,12.38
2022-12-26T11:22:29.931Z,12.61
2022-12-26T11:25:21.450Z,12.76
2022-12-26T11:27:59.038Z,12.74
2022-12-26T11:30:40.299Z,12.84
2022-12-26T11:33:20.029Z,12.98
2022-12-26T11:36:09.252Z,13.24
2022-12-26T11:38:58.123Z,13.51
2022-12-26T11:41:36.496Z,13.81
2022-12-26T11:44:16.259Z,13.99
2022-12-26T11:47:07.474Z,14.14
2022-12-26T11:50:12.059Z,14.27
2022-12-26T11:52:53.000Z,15.09
2022-12-26T11:55:26.731Z,15.34
2022-12-26T11:58:06.557Z,15.05
2022-12-26T12:01:06.004Z,14.64
2022-12-26T12:03:42.327Z,14.41
2022-12-26T12:06:34.120Z,14.54
2022-12-26T12:09:30.933Z,14.50
2022-12-26T12:12:16.296Z,14.17
2022-12-26T12:15:01.727Z,13.97
2022-12-26T12:17:36.067Z,13.75
2022-12-26T12:20:32.418Z,13.46
2022-12-26T12:23:38.571Z,13.44
2022-12-26T12:26:58.793Z,13.29
2022-12-26T12:29:43.943Z,13.30
2022-12-26T12:32:31.707Z,13.22
2022-12-26T12:35:19.208Z,13.14
2022-12-26T12:38:21.125Z,13.13
2022-12-26T12:41:10.917Z,13.27
2022-12-26T12:43:50.781Z,13.08
2022-12-26T12:46:46.744Z,13.01
2022-12-26T12:49:45.406Z,13.09
2022-12-26T12:53:03.492Z,13.06
2022-12-26T12:56:02.954Z,13.03
2022-12-26T12:59:00.867Z,12.91
2022-12-26T13:01:42.909Z,12.79
2022-12-26T13:04:22.221Z,12.71
2022-12-26T13:07:11.781Z,12.66
2022-12-26T13:09:46.668Z,12.58
2022-12-26T13:12:26.456Z,12.61
2022-12-26T13:15:03.081Z,12.49
2022-12-26T13:17:49.715Z,12.49
2022-12-26T13:20:55.937Z,12.39
2022-12-26T13:23:56.603Z,12.33
2022-12-26T13:26:37.760Z,12.52
2022-12-26T13:29:13.314Z,12.52
2022-12-26T13:31:43.171Z,12.38
2022-12-26T13:34:17.396Z,12.39
2022-12-26T13:36:48.624Z,12.24
2022-12-26T13:39:27.783Z,12.25
2022-12-26T13:42:28.484Z,12.21
2022-12-26T13:45:16.576Z,12.08
2022-12-26T13:47:43.846Z,11.97
2022-12-26T13:50:56.721Z,11.84
2022-12-26T13:53:26.893Z,11.96
2022-12-26T13:56:02.658Z,11.94
2022-12-26T13:59:09.844Z,11.94
2022-12-26T14:01:55.978Z,11.80
2022-12-26T14:05:04.597Z,11.89
2022-12-26T14:08:07.560Z,11.86
2022-12-26T14:10:57.968Z,11.75
2022-12-26T14:13:46.471Z,11.77
2022-12-26T14:16:42.266Z,11.78
2022-12-26T14:19:37.108Z,11.70
2022-12-26T14:22:27.928Z,11.68
2022-12-26T14:25:13.666Z,11.58
2022-12-26T14:28:25.691Z,11.40
2022-12-26T14:30:57.639Z,11.52
2022-12-26T14:33:51.192Z,11.36
2022-12-26T14:36:50.150Z,11.36
2022-12-26T14:40:11.387Z,11.23
2022-12-26T14:43:12.708Z,11.18
2022-12-26T14:45:44.580Z,11.20
2022-12-26T14:48:18.190Z,11.26
2022-12-26T14:50:47.148Z,11.23
2022-12-26T14:53:29.136Z,11.14
2022-12-26T14:56:15.932Z,11.17
2022-12-26T14:58:47.481Z,11.16
2022-12-26T15:01:20.619Z,11.11
2022-12-26T15:04:03.272Z,11.12
2022-12-26T15:07:30.416Z,11.16
2022-12-26T15:10:22.544Z,11.25
2022-12-26T15:13:29.179Z,11.37
2022-12-26T15:16:37.635Z,11.23
2022-12-26T15:19:32.351Z,11.23
2022-12-26T15:22:21.684Z,11.24
2022-12-26T15:25:22.393Z,11.20
2022-12-26T15:28:11.971Z,11.32
2022-12-26T15:31:36.619Z,11.32
2022-12-26T15:34:43.570Z,11.30
2022-12-26T15:37:39.241Z,11.31
2022-12-26T15:40:30.199Z,11.34
2022-12-26T15:43:28.402Z,11.21
2022-12-26T15:46:18.971Z,11.20
2022-12-26T15:49:20.780Z,11.16
2022-12-26T15:52:15.520Z,11.21
2022-12-26T15:55:16.940Z,11.18
2022-12-26T15:58:33.406Z,11.18
2022-12-26T16:01:01.246Z,11.19
2022-12-26T16:03:34.993Z,11.20
2022-12-26T16:07:05.160Z,11.10
2022-12-26T16:09:41.752Z,11.04
2022-12-26T16:12:25.716Z,10.72
2022-12-26T16:15:25.148Z,10.40
2022-12-26T16:17:52.610Z,10.29
2022-12-26T16:20:50.597Z,10.08
2022-12-26T16:23:24.900Z,10.04
2022-12-26T16:25:55.753Z,10.08
2022-12-26T16:28:41.669Z,9.80
2022-12-26T16:31:16.212Z,9.68
2022-12-26T16:33:44.527Z,9.60
2022-12-26T16:36:24.728Z,9.56
2022-12-26T16:38:53.932Z,9.53
2022-12-26T16:41:23.663Z,9.44
2022-12-26T16:43:57.059Z,9.44
2022-12-26T16:46:30.051Z,9.43
2022-12-26T16:49:01.799Z,9.28
2022-12-26T16:51:44.073Z,9.34
2022-12-26T16:54:29.643Z,9.34
2022-12-26T16:57:06.338Z,9.31
2022-12-26T16:59:59.618Z,9.24
2022-12-26T17:02:34.658Z,9.20
2022-12-26T17:05:38.065Z,9.16
2022-12-26T17:08:06.024Z,9.07
2022-12-26T17:10:37.465Z,9.16
2022-12-26T17:13:09.744Z,9.14
2022-12-26T17:15:49.147Z,9.15
2022-12-26T17:18:45.109Z,9.12
2022-12-26T17:21:28.327Z,8.95
2022-12-26T17:24:26.650Z,8.99
2022-12-26T17:27:16.497Z,9.03
2022-12-26T17:29:56.673Z,9.13
2022-12-26T17:32:46.673Z,9.20
2022-12-26T17:35:23.645Z,9.31
2022-12-26T17:37:59.360Z,9.31
2022-12-26T17:40:41.360Z,9.45
2022-12-26T17:43:11.664Z,9.45
2022-12-26T17:45:46.849Z,9.49
2022-12-26T17:48:14.470Z,9.54
2022-12-26T17:50:45.681Z,9.54
2022-12-26T17:53:39.793Z,9.74
2022-12-26T17:56:13.854Z,9.66
2022-12-26T17:58:41.198Z,9.73
2022-12-26T18:05:09.344Z,9.76
2022-12-26T18:07:37.444Z,9.58
2022-12-26T18:10:08.978Z,9.43
2022-12-26T18:12:38.324Z,9.24
2022-12-26T18:15:07.608Z,9.10
2022-12-26T18:17:40.258Z,8.94
2022-12-26T18:20:18.272Z,8.89
2022-12-26T18:22:49.237Z,8.75
2022-12-26T18:25:20.008Z,8.83
2022-12-26T18:27:47.779Z,8.72
2022-12-26T18:30:26.216Z,8.72
2022-12-26T18:32:54.478Z,8.80
2022-12-26T18:35:40.369Z,8.85
2022-12-26T18:39:19.021Z,8.84
2022-12-26T18:41:46.503Z,8.75
2022-12-26T18:44:15.777Z,8.80
2022-12-26T18:46:43.789Z,8.74
2022-12-26T18:49:11.715Z,8.82
2022-12-26T18:51:39.537Z,8.85
2022-12-26T18:54:06.836Z,9.00
2022-12-26T18:56:34.338Z,8.97
2022-12-26T18:59:01.612Z,9.01
2022-12-26T19:01:28.964Z,8.97
2022-12-26T19:03:57.875Z,9.03
2022-12-26T19:06:30.318Z,9.12
2022-12-26T19:08:58.556Z,8.97
2022-12-26T19:11:25.999Z,8.77
2022-12-26T19:13:54.074Z,8.78
2022-12-26T19:16:23.478Z,8.89
2022-12-26T19:18:51.591Z,8.82
2022-12-26T19:21:19.804Z,9.01
2022-12-26T19:23:48.207Z,8.97
2022-12-26T19:26:18.776Z,8.98
2022-12-26T19:28:57.023Z,8.91
2022-12-26T19:31:25.446Z,8.99
2022-12-26T19:33:53.552Z,9.14
2022-12-26T19:36:21.397Z,9.19
2022-12-26T19:38:54.256Z,9.25
2022-12-26T19:41:23.178Z,9.16
2022-12-26T19:43:59.494Z,9.11
2022-12-26T19:46:28.405Z,9.24
2022-12-26T19:48:56.217Z,9.33
2022-12-26T19:51:24.136Z,9.37
2022-12-26T19:53:52.247Z,9.33
2022-12-26T19:56:24.361Z,9.37
2022-12-26T19:58:56.714Z,9.46
2022-12-26T20:01:29.185Z,9.45
2022-12-26T20:04:04.181Z,9.40
2022-12-26T20:06:35.383Z,9.46
2022-12-26T20:09:12.101Z,9.40
2022-12-26T20:11:50.579Z,9.36
2022-12-26T20:14:21.368Z,9.31
2022-12-26T20:17:09.377Z,9.33
2022-12-26T20:19:37.844Z,9.32
2022-12-26T20:22:06.877Z,9.33
2022-12-26T20:24:35.275Z,9.37
2022-12-26T20:27:03.560Z,9.43
2022-12-26T20:29:32.218Z,9.45
2022-12-26T20:32:00.257Z,9.42
2022-12-26T20:34:28.474Z,9.43
2022-12-26T20:36:56.379Z,9.53
2022-12-26T20:39:25.844Z,9.47
2022-12-26T20:41:53.723Z,9.51
2022-12-26T20:44:21.615Z,9.58
2022-12-26T20:46:49.445Z,9.59
2022-12-26T20:49:17.547Z,9.48
2022-12-26T20:51:46.126Z,9.37
2022-12-26T20:54:16.304Z,9.33
2022-12-26T20:56:44.871Z,9.44
2022-12-26T20:59:13.041Z,9.51
2022-12-26T21:01:41.496Z,9.45
2022-12-26T21:04:18.712Z,9.37
2022-12-26T21:06:47.740Z,9.41
2022-12-26T21:09:16.075Z,9.41
2022-12-26T21:11:45.923Z,9.44
2022-12-26T21:14:18.294Z,9.40
2022-12-26T21:16:59.099Z,9.30
2022-12-26T21:19:29.674Z,9.34
2022-12-26T21:21:58.086Z,9.31
2022-12-26T21:24:31.024Z,9.33
2022-12-26T21:26:59.260Z,9.20
2022-12-26T21:29:31.775Z,9.15
2022-12-26T21:32:00.945Z,9.16
2022-12-26T21:34:32.309Z,9.14
2022-12-26T21:37:18.761Z,9.20
2022-12-26T21:39:47.498Z,9.18
2022-12-26T21:42:15.236Z,9.15
2022-12-26T21:44:42.741Z,9.20
2022-12-26T21:47:10.314Z,9.33
2022-12-26T21:49:37.998Z,9.21
2022-12-26T21:52:08.173Z,9.28
2022-12-26T21:54:54.316Z,9.37
2022-12-26T21:57:22.217Z,9.31
2022-12-26T21:59:59.338Z,9.34
2022-12-26T22:02:56.658Z,9.47
2022-12-26T22:05:30.277Z,9.44
2022-12-26T22:08:00.916Z,9.31
2022-12-26T22:10:51.928Z,9.30
2022-12-26T22:13:21.499Z,9.27
2022-12-26T22:16:08.927Z,9.28
2022-12-26T22:18:41.757Z,9.36
2022-12-26T22:21:18.372Z,9.27
2022-12-26T22:23:47.452Z,9.31
2022-12-26T22:26:16.227Z,9.40
2022-12-26T22:28:44.288Z,9.38
2022-12-26T22:31:32.326Z,9.45
2022-12-26T22:34:06.806Z,9.28
2022-12-26T22:36:34.868Z,9.25
2022-12-26T22:39:02.332Z,9.22
2022-12-26T22:41:29.986Z,9.23
2022-12-26T22:43:57.472Z,9.21
2022-12-26T22:46:25.033Z,9.12
2022-12-26T22:48:52.483Z,9.13
2022-12-26T22:51:25.052Z,9.16
2022-12-26T22:53:57.635Z,9.15
2022-12-26T22:56:26.172Z,9.27
2022-12-26T22:58:55.510Z,9.30
2022-12-26T23:01:23.728Z,9.38
2022-12-26T23:03:51.163Z,9.31
2022-12-26T23:06:34.618Z,9.34
2022-12-26T23:09:06.103Z,9.43
2022-12-26T23:11:35.777Z,9.39
2022-12-26T23:14:06.924Z,9.28
2022-12-26T23:16:51.652Z,9.38
2022-12-26T23:20:09.313Z,9.32
2022-12-26T23:22:37.004Z,9.31
2022-12-26T23:25:04.490Z,9.33
2022-12-26T23:27:50.421Z,9.39
2022-12-26T23:30:20.883Z,9.39
2022-12-26T23:32:53.042Z,9.40
2022-12-26T23:35:22.266Z,9.51
2022-12-26T23:37:50.534Z,9.41
2022-12-26T23:40:19.607Z,9.43
2022-12-26T23:42:46.957Z,9.42
2022-12-26T23:45:15.795Z,9.40
2022-12-26T23:47:45.069Z,9.41
2022-12-26T23:50:14.414Z,9.34
2022-12-26T23:52:42.883Z,9.39
2022-12-26T23:55:11.309Z,9.28
2022-12-26T23:57:38.865Z,9.33
